Time;durP1;ratioP1;P1;durP2;ratioP2;P2;SDS_P1;SDS_P2;PMS_P1;PMS_P2;Temp;Humidity;BMP_temperature;BMP_pressure;BME280_temperature;BME280_humidity;BME280_pressure;Samples;Min_cycle;Max_cycle;Signal;HPM_P1;HPM_P2
2023/04/22 00:01:23;;;;;;;10.93;6.82;;;10.50;99.90;;;;;;5027604;28;20606;-56
2023/04/22 00:03:50;;;;;;;7.65;6.07;;;10.40;99.90;;;;;;5025722;28;20068;-56
2023/04/22 00:06:16;;;;;;;9.75;6.57;;;10.30;99.90;;;;;;5033157;28;20044;-55
2023/04/22 00:08:42;;;;;;;10.30;6.88;;;10.30;99.90;;;;;;5033386;28;20504;-56
2023/04/22 00:11:08;;;;;;;8.50;6.10;;;10.20;99.90;;;;;;5026458;28;20069;-55
2023/04/22 00:13:35;;;;;;;8.00;6.57;;;10.10;99.90;;;;;;5006334;28;20045;-56
2023/04/22 00:16:04;;;;;;;9.35;5.88;;;10.00;99.90;;;;;;5008151;28;20128;-56
2023/04/22 00:18:33;;;;;;;10.27;6.50;;;10.00;99.90;;;;;;5024576;28;20041;-55
2023/04/22 00:20:58;;;;;;;89.43;8.80;;;10.00;99.90;;;;;;5040703;28;20044;-56
2023/04/22 00:23:24;;;;;;;95.57;9.40;;;9.90;99.90;;;;;;5025088;28;20271;-56
2023/04/22 00:25:50;;;;;;;50.72;7.65;;;9.90;99.90;;;;;;5007524;28;20052;-56
2023/04/22 00:28:16;;;;;;;28.65;6.93;;;9.90;99.90;;;;;;5025021;28;20050;-56
2023/04/22 00:30:41;;;;;;;7.90;5.85;;;9.90;99.90;;;;;;5018105;28;20065;-57
2023/04/22 00:33:07;;;;;;;15.35;7.00;;;9.90;99.90;;;;;;5027731;28;20054;-57
2023/04/22 00:35:33;;;;;;;9.05;6.72;;;9.80;99.90;;;;;;5025675;28;20080;-55
2023/04/22 00:37:58;;;;;;;10.10;7.10;;;9.80;99.90;;;;;;5037091;28;20042;-57
2023/04/22 00:40:24;;;;;;;10.20;7.13;;;9.80;99.90;;;;;;5040056;28;20040;-57
2023/04/22 00:42:50;;;;;;;10.23;6.78;;;9.70;99.90;;;;;;5024845;28;20504;-56
2023/04/22 00:45:16;;;;;;;9.07;6.88;;;9.70;99.90;;;;;;5025153;28;20077;-55
2023/04/22 00:47:44;;;;;;;15.20;7.50;;;9.60;99.90;;;;;;5016867;28;20045;-56
2023/04/22 00:50:11;;;;;;;7.45;6.13;;;9.60;99.90;;;;;;5044685;28;20037;-57
2023/04/22 00:52:36;;;;;;;11.05;5.55;;;9.60;99.90;;;;;;5026236;28;20037;-56
2023/04/22 00:55:02;;;;;;;8.93;7.07;;;9.60;99.90;;;;;;5047116;28;20041;-56
2023/04/22 00:57:33;;;;;;;8.50;7.18;;;9.50;99.90;;;;;;5046594;28;20567;-56
2023/04/22 00:59:59;;;;;;;11.55;8.43;;;9.50;99.90;;;;;;5064693;28;20045;-56
2023/04/22 01:02:27;;;;;;;10.90;8.20;;;9.50;99.90;;;;;;5027980;28;20057;-56
2023/04/22 01:04:55;;;;;;;11.20;8.02;;;9.40;99.90;;;;;;5043524;28;20064;-57
2023/04/22 01:07:22;;;;;;;14.32;9.13;;;9.40;99.90;;;;;;5040762;28;20053;-56
2023/04/22 01:09:47;;;;;;;13.70;9.57;;;9.40;99.90;;;;;;5022792;28;20579;-58
2023/04/22 01:12:13;;;;;;;14.30;10.50;;;9.30;99.90;;;;;;5042087;28;20068;-56
2023/04/22 01:14:39;;;;;;;75.68;12.85;;;9.30;99.90;;;;;;5022642;28;20467;-56
2023/04/22 01:17:05;;;;;;;14.43;10.77;;;9.30;99.90;;;;;;5041286;28;20038;-56
2023/04/22 01:19:31;;;;;;;10.95;8.88;;;9.30;99.90;;;;;;5022157;28;20037;-56
2023/04/22 01:22:00;;;;;;;13.40;10.70;;;9.20;99.90;;;;;;5020771;28;20519;-56
2023/04/22 01:24:26;;;;;;;16.42;11.32;;;9.20;99.90;;;;;;5029010;28;20069;-55
2023/04/22 01:26:53;;;;;;;15.00;10.80;;;9.10;99.90;;;;;;5021699;28;20056;-56
2023/04/22 01:29:19;;;;;;;16.27;11.02;;;9.10;99.90;;;;;;5009042;28;20042;-56
2023/04/22 01:31:45;;;;;;;17.40;12.68;;;9.10;99.90;;;;;;5036696;28;20104;-54
2023/04/22 01:34:11;;;;;;;18.85;12.88;;;9.10;99.90;;;;;;5036169;28;20060;-55
2023/04/22 01:36:37;;;;;;;19.75;13.43;;;9.10;99.90;;;;;;5004751;28;20042;-55
2023/04/22 01:39:03;;;;;;;22.25;14.32;;;9.10;99.90;;;;;;5030044;28;20117;-56
2023/04/22 01:41:29;;;;;;;22.20;14.65;;;9.10;99.90;;;;;;5031271;28;20050;-55
2023/04/22 01:43:57;;;;;;;20.75;15.73;;;9.10;99.90;;;;;;5036303;28;20430;-55
2023/04/22 01:46:23;;;;;;;26.73;15.50;;;9.00;99.90;;;;;;5045013;28;20044;-55
2023/04/22 01:48:50;;;;;;;61.22;18.90;;;9.00;99.90;;;;;;5060567;28;20041;-55
2023/04/22 01:51:19;;;;;;;40.85;17.63;;;9.00;99.90;;;;;;5061170;28;20420;-56
2023/04/22 01:53:47;;;;;;;41.90;17.65;;;9.00;99.90;;;;;;5042601;28;20037;-55
2023/04/22 01:56:13;;;;;;;86.63;17.65;;;9.00;99.90;;;;;;5025250;28;20034;-55
2023/04/22 01:58:39;;;;;;;89.03;19.35;;;9.00;99.90;;;;;;5019404;28;20067;-55
2023/04/22 02:01:08;;;;;;;107.70;20.05;;;9.00;99.90;;;;;;5059771;28;20067;-55
2023/04/22 02:03:34;;;;;;;45.17;18.70;;;8.90;99.90;;;;;;5060902;28;20049;-56
2023/04/22 02:06:00;;;;;;;62.00;17.85;;;8.90;99.90;;;;;;5060273;28;20087;-56
2023/04/22 02:08:26;;;;;;;55.55;19.13;;;8.90;99.90;;;;;;5047016;28;20115;-56
2023/04/22 02:10:52;;;;;;;47.22;18.85;;;8.90;99.90;;;;;;5040512;28;20080;-55
2023/04/22 02:13:17;;;;;;;25.00;17.02;;;8.90;99.90;;;;;;5039261;28;20072;-56
2023/04/22 02:15:43;;;;;;;23.77;16.48;;;8.80;99.90;;;;;;5022315;28;20109;-55
2023/04/22 02:18:09;;;;;;;24.50;16.02;;;8.80;99.90;;;;;;5039345;28;20429;-56
2023/04/22 02:20:35;;;;;;;25.88;16.90;;;8.70;99.90;;;;;;5040627;28;20097;-56
2023/04/22 02:23:02;;;;;;;21.67;16.35;;;8.70;99.90;;;;;;5038551;28;20115;-55
2023/04/22 02:25:27;;;;;;;24.08;16.85;;;8.70;99.90;;;;;;5034983;28;20037;-55
2023/04/22 02:27:53;;;;;;;23.60;16.67;;;8.70;99.90;;;;;;4994084;28;20044;-56
2023/04/22 02:30:20;;;;;;;23.92;16.60;;;8.70;99.90;;;;;;5037585;28;20041;-55
2023/04/22 02:32:45;;;;;;;28.83;16.27;;;8.70;99.90;;;;;;5010757;28;20145;-54
2023/04/22 02:35:11;;;;;;;25.75;17.50;;;8.70;99.90;;;;;;4994709;28;20042;-55
2023/04/22 02:37:37;;;;;;;23.70;15.55;;;8.60;99.90;;;;;;5035694;28;20072;-55
2023/04/22 02:40:03;;;;;;;25.27;16.27;;;8.60;99.90;;;;;;5029907;28;20051;-55
2023/04/22 02:42:29;;;;;;;23.50;16.27;;;8.60;99.90;;;;;;5028195;28;20038;-56
2023/04/22 02:44:55;;;;;;;25.85;15.93;;;8.60;99.90;;;;;;5023664;28;20052;-55
2023/04/22 02:47:22;;;;;;;25.10;16.23;;;8.50;99.90;;;;;;5004347;28;20056;-55
2023/04/22 02:49:47;;;;;;;24.05;16.20;;;8.50;99.90;;;;;;5021067;28;20041;-55
2023/04/22 02:52:13;;;;;;;25.25;15.68;;;8.50;99.90;;;;;;5021525;28;20045;-55
2023/04/22 02:54:39;;;;;;;23.00;15.02;;;8.50;99.90;;;;;;5039819;28;20064;-55
2023/04/22 02:57:05;;;;;;;22.38;14.90;;;8.50;99.90;;;;;;4988961;28;20478;-56
2023/04/22 02:59:31;;;;;;;22.58;16.25;;;8.40;99.90;;;;;;5042380;28;20049;-55
2023/04/22 03:01:56;;;;;;;22.90;15.48;;;8.40;99.90;;;;;;5026981;28;20131;-55
2023/04/22 03:04:24;;;;;;;18.85;14.30;;;8.40;99.90;;;;;;5038579;28;20048;-55
2023/04/22 03:06:50;;;;;;;20.50;14.80;;;8.40;99.90;;;;;;5039138;28;20512;-55
2023/04/22 03:09:16;;;;;;;23.10;15.68;;;8.40;99.90;;;;;;5038431;28;20265;-55
2023/04/22 03:11:42;;;;;;;25.65;15.93;;;8.30;99.90;;;;;;5039540;28;20045;-56
2023/04/22 03:14:08;;;;;;;22.83;16.00;;;8.30;99.90;;;;;;5020368;28;20148;-56
2023/04/22 03:16:34;;;;;;;23.02;16.08;;;8.30;99.90;;;;;;5037003;28;20494;-55
2023/04/22 03:18:59;;;;;;;23.50;15.32;;;8.30;99.90;;;;;;5034669;28;20046;-55
2023/04/22 03:21:25;;;;;;;21.17;15.48;;;8.30;99.90;;;;;;5032099;28;20046;-56
2023/04/22 03:23:51;;;;;;;21.75;14.32;;;8.30;99.90;;;;;;4969252;28;20056;-55
2023/04/22 03:26:16;;;;;;;23.25;14.50;;;8.30;99.90;;;;;;5003480;28;20491;-55
2023/04/22 03:28:42;;;;;;;20.17;15.13;;;8.30;99.90;;;;;;5002765;28;20048;-55
2023/04/22 03:31:08;;;;;;;24.38;15.05;;;8.20;99.90;;;;;;5014021;28;20049;-56
2023/04/22 03:33:33;;;;;;;22.50;14.68;;;8.20;99.90;;;;;;5019596;28;20048;-56
2023/04/22 03:35:59;;;;;;;25.63;15.18;;;8.20;99.90;;;;;;5003351;28;20037;-55
2023/04/22 03:38:25;;;;;;;21.52;14.65;;;8.20;99.90;;;;;;5038944;28;20398;-55
2023/04/22 03:40:50;;;;;;;18.10;13.10;;;8.20;99.90;;;;;;5018644;28;20033;-55
2023/04/22 03:43:16;;;;;;;21.35;14.70;;;8.10;99.90;;;;;;5027222;28;20053;-56
2023/04/22 03:45:43;;;;;;;18.50;13.82;;;8.10;99.90;;;;;;5001405;28;20494;-55
2023/04/22 03:48:09;;;;;;;18.50;12.45;;;8.10;99.90;;;;;;5018072;28;20510;-55
2023/04/22 03:50:34;;;;;;;17.55;13.27;;;8.10;99.90;;;;;;5004164;28;20044;-55
2023/04/22 03:53:00;;;;;;;18.33;13.55;;;8.10;99.90;;;;;;5018357;28;20044;-55
2023/04/22 03:55:26;;;;;;;18.38;11.95;;;8.00;99.90;;;;;;5033621;28;20096;-56
2023/04/22 03:57:51;;;;;;;17.80;13.32;;;8.00;99.90;;;;;;5038185;28;20044;-55
2023/04/22 04:00:17;;;;;;;14.90;10.57;;;8.10;99.90;;;;;;5019825;28;20049;-56
2023/04/22 04:02:43;;;;;;;19.25;13.95;;;8.10;99.90;;;;;;5026525;28;20041;-55
2023/04/22 04:05:10;;;;;;;18.27;14.15;;;8.10;99.90;;;;;;5030635;28;20117;-55
2023/04/22 04:07:36;;;;;;;18.90;13.88;;;8.00;99.90;;;;;;5018820;28;20050;-55
2023/04/22 04:10:02;;;;;;;19.50;14.25;;;8.10;99.90;;;;;;5037245;28;20050;-55
2023/04/22 04:12:28;;;;;;;20.55;14.70;;;8.00;99.90;;;;;;5020547;28;20049;-56
2023/04/22 04:14:54;;;;;;;22.48;14.65;;;8.00;99.90;;;;;;5020234;28;20080;-55
2023/04/22 04:17:20;;;;;;;22.60;14.82;;;8.00;99.90;;;;;;5021351;28;20046;-55
2023/04/22 04:19:46;;;;;;;21.13;14.68;;;8.00;99.90;;;;;;5018561;28;20053;-55
2023/04/22 04:22:12;;;;;;;23.60;15.57;;;8.00;99.90;;;;;;5025015;28;20038;-57
2023/04/22 04:24:40;;;;;;;23.13;15.07;;;8.00;99.90;;;;;;5018882;28;20034;-55
2023/04/22 04:27:07;;;;;;;20.27;13.30;;;8.00;99.90;;;;;;5018111;28;20046;-55
2023/04/22 04:29:34;;;;;;;19.38;13.65;;;8.00;99.90;;;;;;5019057;28;20052;-55
2023/04/22 04:32:00;;;;;;;18.33;12.82;;;7.90;99.90;;;;;;5023599;28;20433;-55
2023/04/22 04:34:25;;;;;;;20.45;13.93;;;7.90;99.90;;;;;;5012339;28;20097;-56
2023/04/22 04:36:51;;;;;;;20.80;15.02;;;7.90;99.90;;;;;;5006185;28;20038;-55
2023/04/22 04:39:17;;;;;;;20.58;14.55;;;7.90;99.90;;;;;;5031679;28;20045;-56
2023/04/22 04:41:43;;;;;;;18.95;14.25;;;7.80;99.90;;;;;;5016516;28;20530;-55
2023/04/22 04:44:10;;;;;;;21.20;14.38;;;7.80;99.90;;;;;;5023476;28;20042;-56
2023/04/22 04:46:36;;;;;;;18.80;13.65;;;7.80;99.90;;;;;;5016075;28;20045;-55
2023/04/22 04:49:03;;;;;;;19.65;13.40;;;7.80;99.90;;;;;;5024101;28;20045;-55
2023/04/22 04:51:31;;;;;;;17.38;13.23;;;7.80;99.90;;;;;;5041695;28;20045;-55
2023/04/22 04:53:57;;;;;;;18.55;13.05;;;7.80;99.90;;;;;;5041689;28;20471;-56
2023/04/22 04:56:23;;;;;;;18.23;12.65;;;7.70;99.90;;;;;;5041411;28;20041;-56
2023/04/22 04:58:49;;;;;;;16.40;12.32;;;7.70;99.90;;;;;;5043587;28;20072;-56
2023/04/22 05:01:14;;;;;;;16.00;11.90;;;7.70;99.90;;;;;;5023822;28;20464;-56
2023/04/22 05:03:40;;;;;;;15.93;11.60;;;7.70;99.90;;;;;;5042009;28;20072;-55
2023/04/22 05:06:06;;;;;;;20.50;12.35;;;7.70;99.90;;;;;;5041863;28;20033;-55
2023/04/22 05:08:32;;;;;;;17.92;13.15;;;7.70;99.90;;;;;;5041292;28;20436;-56
2023/04/22 05:10:57;;;;;;;18.30;13.70;;;7.70;99.90;;;;;;5007290;28;20053;-56
2023/04/22 05:13:23;;;;;;;19.67;14.63;;;7.80;99.90;;;;;;5039277;28;20309;-55
2023/04/22 05:15:49;;;;;;;20.60;14.18;;;7.80;99.90;;;;;;5040719;28;20049;-56
2023/04/22 05:18:14;;;;;;;25.15;16.50;;;7.80;99.90;;;;;;5021623;28;20042;-56
2023/04/22 05:20:40;;;;;;;25.23;16.65;;;7.80;99.90;;;;;;5021919;28;20056;-55
2023/04/22 05:23:06;;;;;;;28.95;18.08;;;7.80;99.90;;;;;;5040636;28;20420;-55
2023/04/22 05:25:31;;;;;;;29.23;18.52;;;7.90;99.90;;;;;;5039616;28;20038;-55
2023/04/22 05:28:00;;;;;;;25.23;18.20;;;8.00;99.90;;;;;;5021165;28;20107;-55
2023/04/22 05:30:26;;;;;;;25.38;17.83;;;8.00;99.90;;;;;;5028089;28;20046;-53
2023/04/22 05:32:52;;;;;;;29.10;19.08;;;8.10;99.90;;;;;;5037155;28;20104;-56
2023/04/22 05:35:17;;;;;;;30.10;19.42;;;8.10;99.90;;;;;;5010269;28;20072;-56
2023/04/22 05:37:43;;;;;;;30.70;20.83;;;8.20;99.90;;;;;;5026821;28;20049;-56
2023/04/22 05:40:09;;;;;;;32.15;20.75;;;8.20;99.90;;;;;;5032992;28;20067;-55
2023/04/22 05:42:34;;;;;;;34.63;21.48;;;8.30;99.90;;;;;;5038842;28;20481;-57
2023/04/22 05:45:00;;;;;;;39.25;22.90;;;8.30;99.90;;;;;;5039810;28;20037;-55
2023/04/22 05:47:26;;;;;;;35.53;21.75;;;8.40;99.90;;;;;;5038576;28;20034;-56
2023/04/22 05:49:52;;;;;;;33.97;22.42;;;8.50;99.90;;;;;;5030130;28;20103;-55
2023/04/22 05:52:18;;;;;;;37.63;22.83;;;8.50;99.90;;;;;;5022245;28;20480;-55
2023/04/22 05:54:43;;;;;;;35.00;22.65;;;8.60;99.90;;;;;;5003085;28;20077;-56
2023/04/22 05:57:09;;;;;;;41.28;24.48;;;8.60;99.90;;;;;;5033344;28;20071;-55
2023/04/22 05:59:35;;;;;;;40.33;24.23;;;8.70;99.90;;;;;;5040623;28;20093;-56
2023/04/22 06:02:01;;;;;;;33.70;22.02;;;8.70;99.90;;;;;;5037673;28;20037;-60
2023/04/22 06:04:26;;;;;;;37.50;23.92;;;8.80;99.90;;;;;;5037462;28;20099;-57
2023/04/22 06:06:52;;;;;;;42.78;25.65;;;8.90;99.90;;;;;;5037525;28;20034;-55
2023/04/22 06:09:20;;;;;;;37.35;23.65;;;8.90;99.90;;;;;;5031176;28;20077;-55
2023/04/22 06:11:45;;;;;;;34.20;22.63;;;9.00;99.90;;;;;;5034776;28;20049;-55
2023/04/22 06:14:12;;;;;;;35.80;22.08;;;9.00;99.90;;;;;;5020649;28;20043;-55
2023/04/22 06:16:38;;;;;;;37.85;24.17;;;9.10;99.90;;;;;;5017525;28;20087;-56
2023/04/22 06:19:04;;;;;;;32.42;22.65;;;9.20;99.90;;;;;;5031986;28;20031;-55
2023/04/22 06:21:32;;;;;;;39.67;24.17;;;9.20;99.90;;;;;;5020175;28;20053;-55
2023/04/22 06:23:58;;;;;;;38.22;24.98;;;9.30;99.90;;;;;;5039568;28;20103;-55
2023/04/22 06:26:25;;;;;;;41.28;24.95;;;9.30;99.90;;;;;;5035371;28;20409;-56
2023/04/22 06:28:51;;;;;;;38.35;25.60;;;9.40;99.90;;;;;;5038179;28;20429;-56
2023/04/22 06:31:16;;;;;;;40.67;25.73;;;9.50;99.90;;;;;;5035396;28;20072;-55
2023/04/22 06:33:42;;;;;;;35.83;25.13;;;9.50;99.90;;;;;;5028201;28;20068;-56
2023/04/22 06:36:07;;;;;;;36.05;23.27;;;10.00;99.90;;;;;;5023327;28;20058;-56
2023/04/22 06:38:33;;;;;;;40.35;27.27;;;9.70;99.90;;;;;;5006206;28;20347;-56
2023/04/22 06:41:00;;;;;;;34.88;22.75;;;9.70;99.90;;;;;;5032478;28;20046;-56
2023/04/22 06:43:25;;;;;;;35.78;23.35;;;9.80;99.90;;;;;;5034290;28;20056;-57
2023/04/22 06:45:51;;;;;;;42.28;26.17;;;9.80;99.90;;;;;;5020196;28;20072;-56
2023/04/22 06:48:17;;;;;;;31.27;21.40;;;9.80;99.90;;;;;;5036791;28;20042;-56
2023/04/22 06:50:42;;;;;;;31.15;22.35;;;9.90;99.90;;;;;;5035291;28;20077;-56
2023/04/22 06:53:08;;;;;;;32.40;20.40;;;10.00;99.90;;;;;;5020622;28;20532;-55
2023/04/22 06:55:35;;;;;;;36.33;25.23;;;10.00;99.90;;;;;;5022114;28;20052;-55
2023/04/22 06:58:00;;;;;;;36.30;25.10;;;10.00;99.90;;;;;;5039034;28;20072;-55
2023/04/22 07:00:27;;;;;;;38.88;25.50;;;10.10;99.90;;;;;;5020618;28;20041;-55
2023/04/22 07:02:52;;;;;;;27.83;20.85;;;10.20;99.90;;;;;;5003234;28;20344;-56
2023/04/22 07:05:18;;;;;;;34.65;25.08;;;10.30;99.90;;;;;;5033655;28;20047;-54
2023/04/22 07:07:45;;;;;;;28.05;19.67;;;10.30;99.90;;;;;;5029485;28;20063;-55
2023/04/22 07:10:11;;;;;;;31.33;22.98;;;10.40;99.90;;;;;;5037035;28;20132;-56
2023/04/22 07:12:37;;;;;;;31.73;23.75;;;10.40;99.90;;;;;;5038608;28;20042;-55
2023/04/22 07:15:03;;;;;;;31.80;24.08;;;10.50;99.90;;;;;;5020611;28;20103;-57
2023/04/22 07:17:28;;;;;;;30.27;22.45;;;10.60;99.90;;;;;;5020896;28;20048;-57
2023/04/22 07:19:54;;;;;;;33.75;25.08;;;10.60;99.90;;;;;;5020921;28;20536;-56
2023/04/22 07:22:20;;;;;;;27.98;20.77;;;10.70;99.90;;;;;;5030145;28;20042;-57
2023/04/22 07:24:46;;;;;;;30.40;23.30;;;10.80;99.90;;;;;;5014237;28;20044;-56
2023/04/22 07:27:11;;;;;;;25.40;19.17;;;10.80;99.90;;;;;;5019497;28;20065;-55
2023/04/22 07:29:37;;;;;;;27.40;20.52;;;10.90;99.90;;;;;;5026287;28;20068;-56
2023/04/22 07:32:03;;;;;;;29.77;23.17;;;11.00;99.90;;;;;;5035219;28;20034;-56
2023/04/22 07:34:28;;;;;;;29.08;21.50;;;11.00;99.90;;;;;;5038048;28;20385;-55
2023/04/22 07:36:54;;;;;;;27.35;20.48;;;11.10;99.90;;;;;;5019404;28;20097;-57
2023/04/22 07:39:21;;;;;;;33.13;24.48;;;11.20;99.90;;;;;;5038339;28;20037;-56
2023/04/22 07:41:47;;;;;;;33.97;25.30;;;11.30;99.90;;;;;;5037532;28;20049;-56
2023/04/22 07:44:16;;;;;;;34.53;25.55;;;11.50;99.90;;;;;;5018198;28;20073;-55
2023/04/22 07:46:42;;;;;;;32.43;24.80;;;11.60;99.90;;;;;;5027302;28;20052;-56
2023/04/22 07:49:08;;;;;;;26.10;19.40;;;11.80;99.90;;;;;;5037385;28;20036;-56
2023/04/22 07:51:33;;;;;;;27.98;19.38;;;11.90;99.90;;;;;;5036850;28;20180;-55
2023/04/22 07:53:59;;;;;;;25.10;18.67;;;12.00;99.90;;;;;;5001346;28;20057;-56
2023/04/22 07:56:25;;;;;;;23.90;19.20;;;12.10;99.90;;;;;;5018477;28;20072;-56
2023/04/22 07:58:51;;;;;;;25.88;21.35;;;12.20;99.90;;;;;;4986237;28;20046;-56
2023/04/22 08:01:16;;;;;;;26.08;20.52;;;12.30;99.90;;;;;;4996138;28;20060;-55
2023/04/22 08:03:42;;;;;;;24.35;17.63;;;12.30;99.90;;;;;;5019279;28;20504;-56
2023/04/22 08:06:08;;;;;;;26.00;19.48;;;12.40;99.90;;;;;;5041263;28;20038;-56
2023/04/22 08:08:33;;;;;;;21.88;18.17;;;12.50;99.90;;;;;;5025813;28;20069;-56
2023/04/22 08:10:59;;;;;;;21.02;16.52;;;12.60;99.90;;;;;;5002241;28;20057;-56
2023/04/22 08:13:25;;;;;;;24.67;19.27;;;12.70;99.90;;;;;;5017558;28;20644;-55
2023/04/22 08:15:50;;;;;;;25.17;18.98;;;12.70;99.90;;;;;;5003602;28;20137;-57
2023/04/22 08:18:16;;;;;;;20.27;17.08;;;12.90;99.90;;;;;;5041199;28;20034;-56
2023/04/22 08:20:42;;;;;;;21.55;18.67;;;13.10;99.90;;;;;;5043165;28;20048;-56
2023/04/22 08:23:08;;;;;;;21.70;16.40;;;13.20;99.90;;;;;;5024524;28;20075;-56
2023/04/22 08:25:34;;;;;;;21.63;16.30;;;13.40;99.90;;;;;;5042487;28;20069;-56
2023/04/22 08:27:59;;;;;;;18.95;14.88;;;13.50;99.90;;;;;;5041050;28;20563;-56
2023/04/22 08:30:25;;;;;;;16.35;14.25;;;13.60;99.90;;;;;;5023687;28;20409;-57
2023/04/22 08:32:52;;;;;;;20.48;16.02;;;13.70;99.90;;;;;;5042350;28;20045;-56
2023/04/22 08:35:18;;;;;;;16.20;12.32;;;13.90;99.90;;;;;;5041553;28;20049;-57
2023/04/22 08:37:44;;;;;;;17.65;14.43;;;14.00;99.90;;;;;;5008640;28;20071;-55
2023/04/22 08:40:10;;;;;;;14.73;12.20;;;14.20;99.90;;;;;;5023852;28;20030;-56
2023/04/22 08:42:36;;;;;;;15.57;12.93;;;14.30;99.90;;;;;;5040823;28;20037;-56
2023/04/22 08:45:03;;;;;;;17.80;13.90;;;14.50;99.90;;;;;;5041967;28;20060;-57
2023/04/22 08:47:31;;;;;;;14.82;13.05;;;14.70;99.90;;;;;;5023527;28;20136;-56
2023/04/22 08:50:00;;;;;;;12.93;10.70;;;14.80;99.90;;;;;;5041980;28;20068;-56
2023/04/22 08:52:26;;;;;;;13.20;11.80;;;14.80;99.90;;;;;;5041244;28;20033;-57
2023/04/22 08:54:51;;;;;;;15.85;13.05;;;14.90;99.90;;;;;;5040554;28;20041;-56
2023/04/22 08:57:18;;;;;;;13.82;11.45;;;14.90;99.90;;;;;;5038854;28;20061;-56
2023/04/22 08:59:44;;;;;;;13.98;11.27;;;15.00;99.90;;;;;;5006264;28;20485;-56
2023/04/22 09:02:19;;;;;;;15.88;12.88;;;15.10;99.90;;;;;;5041446;28;20514;-55
2023/04/22 09:04:50;;;;;;;15.00;12.38;;;15.20;99.90;;;;;;5033692;28;20041;-55
2023/04/22 09:07:25;;;;;;;14.10;10.73;;;15.30;99.90;;;;;;5036980;28;20513;-56
2023/04/22 09:09:53;;;;;;;13.00;11.32;;;15.50;99.90;;;;;;5036460;28;20058;-56
2023/04/22 09:12:19;;;;;;;14.93;11.40;;;15.60;99.90;;;;;;5031433;28;20049;-56
2023/04/22 09:14:45;;;;;;;12.95;10.30;;;15.70;99.90;;;;;;5024683;28;20106;-54
2023/04/22 09:17:14;;;;;;;11.77;9.98;;;15.80;99.90;;;;;;5004681;28;20075;-56
2023/04/22 09:19:40;;;;;;;12.07;10.35;;;15.80;99.90;;;;;;5038020;28;20049;-55
2023/04/22 09:22:14;;;;;;;11.88;10.05;;;15.80;99.90;;;;;;5013747;28;20064;-56
2023/04/22 09:24:49;;;;;;;12.38;9.45;;;15.80;99.90;;;;;;4991118;28;20038;-56
2023/04/22 09:27:16;;;;;;;13.70;9.88;;;15.90;99.90;;;;;;5025981;28;20049;-56
2023/04/22 09:29:57;;;;;;;12.70;9.88;;;16.00;99.90;;;;;;5009766;28;20049;-56
2023/04/22 09:32:24;;;;;;;10.52;9.43;;;16.20;99.90;;;;;;5032667;28;20071;-56
2023/04/22 09:34:53;;;;;;;11.13;9.93;;;16.30;99.90;;;;;;5034343;28;20048;-56
2023/04/22 09:37:26;;;;;;;13.63;11.07;;;16.40;99.90;;;;;;5041104;28;20049;-56
2023/04/22 09:39:52;;;;;;;13.02;9.52;;;16.40;99.90;;;;;;5019146;28;20093;-56
2023/04/22 09:42:19;;;;;;;11.50;8.68;;;16.50;99.90;;;;;;5041358;28;20045;-56
2023/04/22 09:44:46;;;;;;;10.57;9.18;;;16.50;99.90;;;;;;5014340;28;20044;-56
2023/04/22 09:47:13;;;;;;;12.55;9.55;;;16.50;99.90;;;;;;5025784;28;20096;-56
2023/04/22 09:49:44;;;;;;;11.93;9.77;;;16.60;99.90;;;;;;5037520;28;20049;-56
2023/04/22 09:52:10;;;;;;;13.85;10.43;;;16.70;99.90;;;;;;5027296;28;20053;-55
2023/04/22 09:54:36;;;;;;;13.68;11.05;;;16.80;99.90;;;;;;5039304;28;20057;-56
2023/04/22 09:57:03;;;;;;;14.60;10.90;;;16.90;99.90;;;;;;5026881;28;20058;-56
2023/04/22 09:59:30;;;;;;;15.13;10.02;;;17.00;99.90;;;;;;5019195;28;20033;-55
2023/04/22 10:01:59;;;;;;;11.98;9.63;;;17.20;99.90;;;;;;5022717;28;20533;-55
2023/04/22 10:04:25;;;;;;;11.95;9.43;;;17.30;99.90;;;;;;5021487;28;20492;-56
2023/04/22 10:06:52;;;;;;;13.95;10.70;;;17.40;99.90;;;;;;5029151;28;20511;-57
2023/04/22 10:09:20;;;;;;;13.73;10.35;;;17.40;99.90;;;;;;5037897;28;20045;-57
2023/04/22 10:11:47;;;;;;;12.70;9.35;;;17.60;99.90;;;;;;5039258;28;20038;-55
2023/04/22 10:14:13;;;;;;;12.88;9.80;;;17.70;99.90;;;;;;5037584;28;20091;-55
2023/04/22 10:16:42;;;;;;;11.15;9.65;;;17.80;99.90;;;;;;5022326;28;20045;-57
2023/04/22 10:19:12;;;;;;;12.23;8.80;;;17.90;99.90;;;;;;5040348;28;20049;-56
2023/04/22 10:21:41;;;;;;;10.23;8.75;;;18.10;99.90;;;;;;5036718;28;20039;-57
2023/04/22 10:24:15;;;;;;;10.88;8.27;;;18.10;99.90;;;;;;5037504;28;20038;-58
2023/04/22 10:26:49;;;;;;;9.65;8.63;;;18.10;99.90;;;;;;5034029;28;20492;-59
2023/04/22 10:29:16;;;;;;;9.10;8.15;;;18.20;99.90;;;;;;5033828;28;20033;-57
2023/04/22 10:31:51;;;;;;;11.00;8.68;;;18.20;99.90;;;;;;5022839;28;20600;-57
2023/04/22 10:34:17;;;;;;;10.65;9.45;;;18.30;99.90;;;;;;5019822;28;20042;-57
2023/04/22 10:37:04;;;;;;;12.68;10.10;;;18.40;99.90;;;;;;5032479;28;20025;-57
2023/04/22 10:39:30;;;;;;;12.20;9.82;;;18.60;99.90;;;;;;5032412;28;20052;-57
2023/04/22 10:42:10;;;;;;;10.30;9.18;;;18.50;99.90;;;;;;5017896;28;20049;-56
2023/04/22 10:44:51;;;;;;;10.23;8.52;;;18.60;99.90;;;;;;5018844;28;20077;-55
2023/04/22 10:47:36;;;;;;;10.55;9.45;;;18.60;99.90;;;;;;5025164;28;20090;-56
2023/04/22 10:50:11;;;;;;;13.25;9.52;;;18.70;99.90;;;;;;5030042;28;20105;-55
2023/04/22 10:52:38;;;;;;;9.60;8.57;;;18.80;99.90;;;;;;5010608;28;20049;-56
2023/04/22 10:55:04;;;;;;;12.70;9.15;;;18.90;99.90;;;;;;5040037;28;20033;-55
2023/04/22 10:57:41;;;;;;;12.00;8.65;;;19.00;99.90;;;;;;5036984;28;20034;-55
2023/04/22 11:00:25;;;;;;;11.75;8.80;;;19.10;99.90;;;;;;5018807;28;20048;-56
2023/04/22 11:03:12;;;;;;;12.70;8.23;;;19.10;99.90;;;;;;5024565;28;20080;-55
2023/04/22 11:05:39;;;;;;;10.30;6.88;;;19.20;99.90;;;;;;5019488;28;20085;-55
2023/04/22 11:08:12;;;;;;;9.65;7.55;;;19.30;99.90;;;;;;5028115;28;20050;-57
2023/04/22 11:10:45;;;;;;;7.82;7.00;;;19.40;99.90;;;;;;5019785;28;20109;-56
2023/04/22 11:13:22;;;;;;;9.32;7.70;;;19.50;99.90;;;;;;5028945;28;20099;-59
2023/04/22 11:15:50;;;;;;;9.02;7.70;;;19.60;99.90;;;;;;5037145;28;20244;-56
2023/04/22 11:18:24;;;;;;;11.25;7.25;;;19.60;99.90;;;;;;5018969;28;20042;-55
2023/04/22 11:20:51;;;;;;;8.75;7.10;;;19.60;99.90;;;;;;5024247;28;20046;-56
2023/04/22 11:23:25;;;;;;;8.45;7.18;;;19.70;99.90;;;;;;5019512;28;20623;-55
2023/04/22 11:25:59;;;;;;;9.05;7.45;;;19.70;99.90;;;;;;5018995;28;20046;-56
2023/04/22 11:28:25;;;;;;;9.48;7.32;;;19.70;99.90;;;;;;5027804;28;20045;-56
2023/04/22 11:30:51;;;;;;;8.07;7.28;;;19.60;99.90;;;;;;5020163;28;20045;-56
2023/04/22 11:33:18;;;;;;;9.23;7.88;;;19.60;99.90;;;;;;5021725;28;20433;-56
2023/04/22 11:35:44;;;;;;;9.45;7.45;;;19.60;99.90;;;;;;5038840;28;20045;-56
2023/04/22 11:38:09;;;;;;;7.90;7.00;;;19.50;99.90;;;;;;5038857;28;20044;-55
2023/04/22 11:40:38;;;;;;;7.82;7.03;;;19.50;99.90;;;;;;5037292;28;20038;-54
2023/04/22 11:43:05;;;;;;;9.63;8.25;;;19.50;99.90;;;;;;5037820;28;20065;-55
2023/04/22 11:45:35;;;;;;;9.85;8.73;;;19.40;99.90;;;;;;5038924;28;20048;-56
2023/04/22 11:48:02;;;;;;;11.60;8.80;;;19.40;99.90;;;;;;5038049;28;20088;-55
2023/04/22 11:50:34;;;;;;;12.13;8.50;;;19.50;99.90;;;;;;5038660;28;20045;-55
2023/04/22 11:53:32;;;;;;;8.80;7.90;;;19.60;99.90;;;;;;5036690;28;20076;-54
2023/04/22 11:55:57;;;;;;;9.48;7.78;;;19.80;99.90;;;;;;4994269;28;20057;-54
2023/04/22 11:58:25;;;;;;;13.05;8.25;;;20.00;99.90;;;;;;5020788;28;20052;-55
2023/04/22 12:00:53;;;;;;;11.15;8.00;;;20.10;99.90;;;;;;5037597;28;20034;-56
2023/04/22 12:03:21;;;;;;;10.88;8.00;;;20.40;99.90;;;;;;5039163;28;20046;-55
2023/04/22 12:05:56;;;;;;;9.85;7.32;;;20.70;99.90;;;;;;5037044;28;20046;-54
2023/04/22 12:08:24;;;;;;;9.63;7.13;;;20.90;99.90;;;;;;5038394;28;20068;-55
2023/04/22 12:10:53;;;;;;;8.70;7.80;;;21.00;99.90;;;;;;5038450;28;20535;-55
2023/04/22 12:13:35;;;;;;;8.07;6.47;;;21.00;99.90;;;;;;5037723;28;20057;-55
2023/04/22 12:16:08;;;;;;;7.32;6.43;;;21.00;99.90;;;;;;5038944;28;20056;-55
2023/04/22 12:18:46;;;;;;;9.05;7.30;;;20.90;99.90;;;;;;5020512;28;20049;-55
2023/04/22 12:21:13;;;;;;;8.15;7.00;;;20.70;99.90;;;;;;5034686;28;20034;-55
2023/04/22 12:23:49;;;;;;;7.53;6.70;;;20.50;99.90;;;;;;5038352;28;20046;-54
2023/04/22 12:26:17;;;;;;;7.78;6.55;;;20.40;99.90;;;;;;5038044;28;20049;-55
2023/04/22 12:28:43;;;;;;;8.68;6.07;;;20.30;99.90;;;;;;5038571;28;20100;-55
2023/04/22 12:31:09;;;;;;;8.50;5.22;;;20.30;99.90;;;;;;5036387;28;20073;-55
2023/04/22 12:33:36;;;;;;;10.48;4.97;;;20.30;99.90;;;;;;5038595;28;20076;-55
2023/04/22 12:36:03;;;;;;;6.60;5.38;;;20.40;99.90;;;;;;5038193;28;20486;-55